sensor_id;sensor_type;location;lat;lon;timestamp;temperature;humidity
69731;SHT31;56996;48.138;11.538;2023-06-26T00:02:15;20.99;43.54
69731;SHT31;56996;48.138;11.538;2023-06-26T00:04:42;20.95;43.53
69731;SHT31;56996;48.138;11.538;2023-06-26T00:07:10;20.93;43.48
69731;SHT31;56996;48.138;11.538;2023-06-26T00:09:37;20.91;43.44
69731;SHT31;56996;48.138;11.538;2023-06-26T00:12:04;20.87;43.52
69731;SHT31;56996;48.138;11.538;2023-06-26T00:14:31;20.83;43.63
69731;SHT31;56996;48.138;11.538;2023-06-26T00:16:58;20.82;43.66
69731;SHT31;56996;48.138;11.538;2023-06-26T00:19:25;20.80;43.64
69731;SHT31;56996;48.138;11.538;2023-06-26T00:21:51;20.77;43.72
69731;SHT31;56996;48.138;11.538;2023-06-26T00:24:18;20.76;43.79
69731;SHT31;56996;48.138;11.538;2023-06-26T00:26:46;20.74;43.90
69731;SHT31;56996;48.138;11.538;2023-06-26T00:29:14;20.72;44.03
69731;SHT31;56996;48.138;11.538;2023-06-26T00:31:40;20.71;44.11
69731;SHT31;56996;48.138;11.538;2023-06-26T00:34:08;20.70;44.28
69731;SHT31;56996;48.138;11.538;2023-06-26T00:36:35;20.66;44.38
69731;SHT31;56996;48.138;11.538;2023-06-26T00:39:02;20.62;44.63
69731;SHT31;56996;48.138;11.538;2023-06-26T00:41:30;20.57;44.84
69731;SHT31;56996;48.138;11.538;2023-06-26T00:43:56;20.56;44.87
69731;SHT31;56996;48.138;11.538;2023-06-26T00:46:25;20.53;44.96
69731;SHT31;56996;48.138;11.538;2023-06-26T00:48:52;20.51;44.94
69731;SHT31;56996;48.138;11.538;2023-06-26T00:51:20;20.49;45.05
69731;SHT31;56996;48.138;11.538;2023-06-26T00:53:49;20.46;45.12
69731;SHT31;56996;48.138;11.538;2023-06-26T00:56:17;20.42;45.23
69731;SHT31;56996;48.138;11.538;2023-06-26T00:58:45;20.40;45.14
69731;SHT31;56996;48.138;11.538;2023-06-26T01:01:12;20.38;45.06
69731;SHT31;56996;48.138;11.538;2023-06-26T01:03:44;20.34;45.15
69731;SHT31;56996;48.138;11.538;2023-06-26T01:06:13;20.32;45.21
69731;SHT31;56996;48.138;11.538;2023-06-26T01:08:42;20.30;45.30
69731;SHT31;56996;48.138;11.538;2023-06-26T01:11:11;20.28;45.40
69731;SHT31;56996;48.138;11.538;2023-06-26T01:13:40;20.26;45.49
69731;SHT31;56996;48.138;11.538;2023-06-26T01:16:10;20.23;45.59
69731;SHT31;56996;48.138;11.538;2023-06-26T01:18:38;20.19;45.63
69731;SHT31;56996;48.138;11.538;2023-06-26T01:21:08;20.17;45.75
69731;SHT31;56996;48.138;11.538;2023-06-26T01:26:32;20.09;45.97
69731;SHT31;56996;48.138;11.538;2023-06-26T01:29:04;20.06;46.08
69731;SHT31;56996;48.138;11.538;2023-06-26T01:31:34;20.03;46.20
69731;SHT31;56996;48.138;11.538;2023-06-26T01:34:01;19.99;46.32
69731;SHT31;56996;48.138;11.538;2023-06-26T01:36:29;19.96;46.24
69731;SHT31;56996;48.138;11.538;2023-06-26T01:38:55;19.92;46.30
69731;SHT31;56996;48.138;11.538;2023-06-26T01:41:22;19.87;46.40
69731;SHT31;56996;48.138;11.538;2023-06-26T01:52:23;19.70;46.78
69731;SHT31;56996;48.138;11.538;2023-06-26T01:55:03;19.66;46.90
69731;SHT31;56996;48.138;11.538;2023-06-26T01:57:47;19.63;47.03
69731;SHT31;56996;48.138;11.538;2023-06-26T02:00:15;19.59;47.11
69731;SHT31;56996;48.138;11.538;2023-06-26T02:02:45;19.58;47.17
69731;SHT31;56996;48.138;11.538;2023-06-26T02:05:12;19.54;47.31
69731;SHT31;56996;48.138;11.538;2023-06-26T02:07:40;19.52;47.41
69731;SHT31;56996;48.138;11.538;2023-06-26T02:10:07;19.51;47.53
69731;SHT31;56996;48.138;11.538;2023-06-26T02:12:35;19.47;47.59
69731;SHT31;56996;48.138;11.538;2023-06-26T02:15:04;19.45;47.76
69731;SHT31;56996;48.138;11.538;2023-06-26T02:17:31;19.43;47.82
69731;SHT31;56996;48.138;11.538;2023-06-26T02:19:58;19.40;47.95
69731;SHT31;56996;48.138;11.538;2023-06-26T02:22:25;19.38;48.06
69731;SHT31;56996;48.138;11.538;2023-06-26T02:24:52;19.34;48.21
69731;SHT31;56996;48.138;11.538;2023-06-26T02:27:18;19.32;48.33
69731;SHT31;56996;48.138;11.538;2023-06-26T02:29:45;19.29;48.43
69731;SHT31;56996;48.138;11.538;2023-06-26T02:32:12;19.26;48.53
69731;SHT31;56996;48.138;11.538;2023-06-26T02:34:39;19.23;48.70
69731;SHT31;56996;48.138;11.538;2023-06-26T02:37:06;19.19;48.83
69731;SHT31;56996;48.138;11.538;2023-06-26T02:39:34;19.17;48.93
69731;SHT31;56996;48.138;11.538;2023-06-26T02:42:01;19.15;49.02
69731;SHT31;56996;48.138;11.538;2023-06-26T02:44:28;19.11;49.14
69731;SHT31;56996;48.138;11.538;2023-06-26T02:46:55;19.10;49.25
69731;SHT31;56996;48.138;11.538;2023-06-26T02:49:22;19.06;49.30
69731;SHT31;56996;48.138;11.538;2023-06-26T02:51:49;19.05;49.36
69731;SHT31;56996;48.138;11.538;2023-06-26T02:54:23;19.02;49.43
69731;SHT31;56996;48.138;11.538;2023-06-26T02:56:52;19.00;49.47
69731;SHT31;56996;48.138;11.538;2023-06-26T02:59:23;18.99;49.49
69731;SHT31;56996;48.138;11.538;2023-06-26T03:01:50;18.98;49.57
69731;SHT31;56996;48.138;11.538;2023-06-26T03:04:17;18.96;49.69
69731;SHT31;56996;48.138;11.538;2023-06-26T03:06:45;18.93;49.73
69731;SHT31;56996;48.138;11.538;2023-06-26T03:09:11;18.92;49.83
69731;SHT31;56996;48.138;11.538;2023-06-26T03:11:38;18.91;49.73
69731;SHT31;56996;48.138;11.538;2023-06-26T03:14:05;18.91;49.79
69731;SHT31;56996;48.138;11.538;2023-06-26T03:16:31;18.89;49.85
69731;SHT31;56996;48.138;11.538;2023-06-26T03:18:58;18.89;49.83
69731;SHT31;56996;48.138;11.538;2023-06-26T03:21:25;18.89;49.81
69731;SHT31;56996;48.138;11.538;2023-06-26T03:23:53;18.88;49.89
69731;SHT31;56996;48.138;11.538;2023-06-26T03:26:19;18.87;49.92
69731;SHT31;56996;48.138;11.538;2023-06-26T03:28:48;18.87;49.95
69731;SHT31;56996;48.138;11.538;2023-06-26T03:31:15;18.86;50.01
69731;SHT31;56996;48.138;11.538;2023-06-26T03:33:41;18.86;50.09
69731;SHT31;56996;48.138;11.538;2023-06-26T03:36:08;18.87;50.12
69731;SHT31;56996;48.138;11.538;2023-06-26T03:38:35;18.87;50.00
69731;SHT31;56996;48.138;11.538;2023-06-26T03:41:02;18.87;50.04
69731;SHT31;56996;48.138;11.538;2023-06-26T03:43:29;18.88;49.99
69731;SHT31;56996;48.138;11.538;2023-06-26T03:46:13;18.87;49.94
69731;SHT31;56996;48.138;11.538;2023-06-26T03:48:40;18.89;49.97
69731;SHT31;56996;48.138;11.538;2023-06-26T03:51:07;18.87;50.02
69731;SHT31;56996;48.138;11.538;2023-06-26T03:53:34;18.89;49.98
69731;SHT31;56996;48.138;11.538;2023-06-26T03:56:01;18.92;49.97
69731;SHT31;56996;48.138;11.538;2023-06-26T03:58:28;18.92;49.96
69731;SHT31;56996;48.138;11.538;2023-06-26T04:00:55;18.93;49.91
69731;SHT31;56996;48.138;11.538;2023-06-26T04:03:22;18.93;49.94
69731;SHT31;56996;48.138;11.538;2023-06-26T04:05:49;18.95;49.99
69731;SHT31;56996;48.138;11.538;2023-06-26T04:08:16;18.95;50.02
69731;SHT31;56996;48.138;11.538;2023-06-26T04:10:42;18.96;50.07
69731;SHT31;56996;48.138;11.538;2023-06-26T04:13:11;18.98;50.08
69731;SHT31;56996;48.138;11.538;2023-06-26T04:15:38;19.01;50.01
69731;SHT31;56996;48.138;11.538;2023-06-26T04:18:05;19.04;50.05
69731;SHT31;56996;48.138;11.538;2023-06-26T04:20:32;19.08;49.97
69731;SHT31;56996;48.138;11.538;2023-06-26T04:23:01;19.10;49.92
69731;SHT31;56996;48.138;11.538;2023-06-26T04:25:28;19.13;49.92
69731;SHT31;56996;48.138;11.538;2023-06-26T04:27:55;19.17;49.77
69731;SHT31;56996;48.138;11.538;2023-06-26T04:30:22;19.22;49.63
69731;SHT31;56996;48.138;11.538;2023-06-26T04:32:48;19.26;49.62
69731;SHT31;56996;48.138;11.538;2023-06-26T04:35:15;19.31;49.59
69731;SHT31;56996;48.138;11.538;2023-06-26T04:37:42;19.35;49.56
69731;SHT31;56996;48.138;11.538;2023-06-26T04:40:09;19.41;49.47
69731;SHT31;56996;48.138;11.538;2023-06-26T04:42:37;19.49;49.31
69731;SHT31;56996;48.138;11.538;2023-06-26T04:45:04;19.55;49.22
69731;SHT31;56996;48.138;11.538;2023-06-26T04:47:31;19.60;49.02
69731;SHT31;56996;48.138;11.538;2023-06-26T04:49:58;19.66;48.99
69731;SHT31;56996;48.138;11.538;2023-06-26T04:52:25;19.73;48.80
69731;SHT31;56996;48.138;11.538;2023-06-26T04:54:52;19.80;48.64
69731;SHT31;56996;48.138;11.538;2023-06-26T04:57:18;19.85;48.46
69731;SHT31;56996;48.138;11.538;2023-06-26T04:59:45;19.94;48.42
69731;SHT31;56996;48.138;11.538;2023-06-26T05:02:12;20.03;48.25
69731;SHT31;56996;48.138;11.538;2023-06-26T05:04:41;20.11;48.03
69731;SHT31;56996;48.138;11.538;2023-06-26T05:07:09;20.18;47.86
69731;SHT31;56996;48.138;11.538;2023-06-26T05:09:36;20.25;47.72
69731;SHT31;56996;48.138;11.538;2023-06-26T05:12:02;20.33;47.62
69731;SHT31;56996;48.138;11.538;2023-06-26T05:14:30;20.41;47.46
69731;SHT31;56996;48.138;11.538;2023-06-26T05:16:56;20.49;47.42
69731;SHT31;56996;48.138;11.538;2023-06-26T05:19:23;20.56;47.33
69731;SHT31;56996;48.138;11.538;2023-06-26T05:21:50;20.64;47.19
69731;SHT31;56996;48.138;11.538;2023-06-26T05:24:18;20.71;47.14
69731;SHT31;56996;48.138;11.538;2023-06-26T05:26:47;20.79;46.95
69731;SHT31;56996;48.138;11.538;2023-06-26T05:29:15;20.86;46.79
69731;SHT31;56996;48.138;11.538;2023-06-26T05:31:42;20.95;46.80
69731;SHT31;56996;48.138;11.538;2023-06-26T05:34:12;21.04;46.65
69731;SHT31;56996;48.138;11.538;2023-06-26T05:36:41;21.12;46.46
69731;SHT31;56996;48.138;11.538;2023-06-26T05:39:09;21.21;46.27
69731;SHT31;56996;48.138;11.538;2023-06-26T05:41:36;21.32;46.17
69731;SHT31;56996;48.138;11.538;2023-06-26T05:44:04;21.40;46.01
69731;SHT31;56996;48.138;11.538;2023-06-26T05:46:30;21.52;45.94
69731;SHT31;56996;48.138;11.538;2023-06-26T05:48:57;21.62;45.78
69731;SHT31;56996;48.138;11.538;2023-06-26T05:51:24;21.71;45.49
69731;SHT31;56996;48.138;11.538;2023-06-26T05:53:51;21.81;45.41
69731;SHT31;56996;48.138;11.538;2023-06-26T05:56:18;21.92;45.23
69731;SHT31;56996;48.138;11.538;2023-06-26T05:58:46;22.03;45.05
69731;SHT31;56996;48.138;11.538;2023-06-26T06:01:14;22.15;45.08
69731;SHT31;56996;48.138;11.538;2023-06-26T06:03:40;22.29;45.02
69731;SHT31;56996;48.138;11.538;2023-06-26T06:06:07;22.42;44.84
69731;SHT31;56996;48.138;11.538;2023-06-26T06:08:34;22.86;44.42
69731;SHT31;56996;48.138;11.538;2023-06-26T06:11:01;24.68;42.14
69731;SHT31;56996;48.138;11.538;2023-06-26T06:13:28;26.63;39.12
69731;SHT31;56996;48.138;11.538;2023-06-26T06:15:55;28.37;37.16
69731;SHT31;56996;48.138;11.538;2023-06-26T06:18:22;29.98;35.14
69731;SHT31;56996;48.138;11.538;2023-06-26T06:20:49;31.50;33.28
69731;SHT31;56996;48.138;11.538;2023-06-26T06:23:15;32.99;31.48
69731;SHT31;56996;48.138;11.538;2023-06-26T06:25:42;34.31;29.67
69731;SHT31;56996;48.138;11.538;2023-06-26T06:28:09;35.12;28.52
69731;SHT31;56996;48.138;11.538;2023-06-26T06:30:36;35.70;27.53
69731;SHT31;56996;48.138;11.538;2023-06-26T06:33:10;36.74;26.72
69731;SHT31;56996;48.138;11.538;2023-06-26T06:35:37;37.95;25.70
69731;SHT31;56996;48.138;11.538;2023-06-26T06:38:04;38.85;24.54
69731;SHT31;56996;48.138;11.538;2023-06-26T06:40:31;39.48;23.72
69731;SHT31;56996;48.138;11.538;2023-06-26T06:42:58;39.91;23.09
69731;SHT31;56996;48.138;11.538;2023-06-26T06:45:24;40.52;22.52
69731;SHT31;56996;48.138;11.538;2023-06-26T06:47:51;41.13;21.75
69731;SHT31;56996;48.138;11.538;2023-06-26T06:50:18;41.56;21.08
69731;SHT31;56996;48.138;11.538;2023-06-26T06:52:45;41.95;20.77
69731;SHT31;56996;48.138;11.538;2023-06-26T06:55:11;42.33;20.25
69731;SHT31;56996;48.138;11.538;2023-06-26T06:57:38;42.53;20.13
69731;SHT31;56996;48.138;11.538;2023-06-26T07:00:10;42.85;19.58
69731;SHT31;56996;48.138;11.538;2023-06-26T07:02:39;43.09;19.59
69731;SHT31;56996;48.138;11.538;2023-06-26T07:05:10;43.41;19.26
69731;SHT31;56996;48.138;11.538;2023-06-26T07:07:38;43.69;18.97
69731;SHT31;56996;48.138;11.538;2023-06-26T07:10:09;43.95;18.78
69731;SHT31;56996;48.138;11.538;2023-06-26T07:12:39;44.41;18.33
69731;SHT31;56996;48.138;11.538;2023-06-26T07:15:06;44.73;18.16
69731;SHT31;56996;48.138;11.538;2023-06-26T07:17:33;44.99;17.77
69731;SHT31;56996;48.138;11.538;2023-06-26T07:20:01;44.78;17.33
69731;SHT31;56996;48.138;11.538;2023-06-26T07:22:34;44.74;17.74
69731;SHT31;56996;48.138;11.538;2023-06-26T07:25:02;45.35;17.26
69731;SHT31;56996;48.138;11.538;2023-06-26T07:27:30;45.40;17.07
69731;SHT31;56996;48.138;11.538;2023-06-26T07:29:57;45.70;17.04
69731;SHT31;56996;48.138;11.538;2023-06-26T07:32:24;45.94;16.71
69731;SHT31;56996;48.138;11.538;2023-06-26T07:34:51;45.69;16.66
69731;SHT31;56996;48.138;11.538;2023-06-26T07:37:17;45.11;17.01
69731;SHT31;56996;48.138;11.538;2023-06-26T07:39:44;45.48;16.92
69731;SHT31;56996;48.138;11.538;2023-06-26T07:42:11;45.99;16.73
69731;SHT31;56996;48.138;11.538;2023-06-26T07:44:38;46.67;16.44
69731;SHT31;56996;48.138;11.538;2023-06-26T07:47:04;47.40;15.83
69731;SHT31;56996;48.138;11.538;2023-06-26T07:49:31;47.62;15.89
69731;SHT31;56996;48.138;11.538;2023-06-26T07:51:58;47.97;15.76
69731;SHT31;56996;48.138;11.538;2023-06-26T07:54:25;47.93;15.57
69731;SHT31;56996;48.138;11.538;2023-06-26T07:56:52;48.10;15.46
69731;SHT31;56996;48.138;11.538;2023-06-26T07:59:21;47.99;15.49
69731;SHT31;56996;48.138;11.538;2023-06-26T08:01:50;48.18;15.38
69731;SHT31;56996;48.138;11.538;2023-06-26T08:04:19;47.97;15.27
69731;SHT31;56996;48.138;11.538;2023-06-26T08:06:49;46.83;15.27
69731;SHT31;56996;48.138;11.538;2023-06-26T08:09:18;45.43;16.07
69731;SHT31;56996;48.138;11.538;2023-06-26T08:11:46;45.50;16.39
69731;SHT31;56996;48.138;11.538;2023-06-26T08:14:13;45.72;16.08
69731;SHT31;56996;48.138;11.538;2023-06-26T08:16:41;46.32;16.08
69731;SHT31;56996;48.138;11.538;2023-06-26T08:19:11;47.15;15.67
69731;SHT31;56996;48.138;11.538;2023-06-26T08:21:42;47.40;15.52
69731;SHT31;56996;48.138;11.538;2023-06-26T08:24:11;47.98;15.47
69731;SHT31;56996;48.138;11.538;2023-06-26T08:26:47;48.07;14.99
69731;SHT31;56996;48.138;11.538;2023-06-26T08:29:14;47.72;15.37
69731;SHT31;56996;48.138;11.538;2023-06-26T08:31:41;48.22;15.19
69731;SHT31;56996;48.138;11.538;2023-06-26T08:34:10;48.64;14.84
69731;SHT31;56996;48.138;11.538;2023-06-26T08:36:36;47.95;14.83
69731;SHT31;56996;48.138;11.538;2023-06-26T08:39:03;47.46;15.23
69731;SHT31;56996;48.138;11.538;2023-06-26T08:41:32;47.15;15.23
69731;SHT31;56996;48.138;11.538;2023-06-26T08:43:58;47.46;15.47
69731;SHT31;56996;48.138;11.538;2023-06-26T08:46:25;48.32;14.94
69731;SHT31;56996;48.138;11.538;2023-06-26T08:48:56;48.42;14.76
69731;SHT31;56996;48.138;11.538;2023-06-26T08:51:28;48.84;14.73
69731;SHT31;56996;48.138;11.538;2023-06-26T08:53:57;49.60;14.29
69731;SHT31;56996;48.138;11.538;2023-06-26T08:56:27;49.54;14.08
69731;SHT31;56996;48.138;11.538;2023-06-26T08:59:00;49.03;14.18
69731;SHT31;56996;48.138;11.538;2023-06-26T09:01:27;48.75;14.15
69731;SHT31;56996;48.138;11.538;2023-06-26T09:03:54;49.30;13.95
69731;SHT31;56996;48.138;11.538;2023-06-26T09:06:21;49.74;13.63
69731;SHT31;56996;48.138;11.538;2023-06-26T09:08:48;48.96;13.71
69731;SHT31;56996;48.138;11.538;2023-06-26T09:11:15;48.79;14.07
69731;SHT31;56996;48.138;11.538;2023-06-26T09:13:42;48.86;14.08
69731;SHT31;56996;48.138;11.538;2023-06-26T09:16:09;49.18;14.07
69731;SHT31;56996;48.138;11.538;2023-06-26T09:18:36;49.13;13.79
69731;SHT31;56996;48.138;11.538;2023-06-26T09:21:07;48.93;14.29
69731;SHT31;56996;48.138;11.538;2023-06-26T09:23:35;49.74;13.90
69731;SHT31;56996;48.138;11.538;2023-06-26T09:26:03;50.13;13.70
69731;SHT31;56996;48.138;11.538;2023-06-26T09:28:32;49.66;13.79
69731;SHT31;56996;48.138;11.538;2023-06-26T09:31:03;48.99;13.86
69731;SHT31;56996;48.138;11.538;2023-06-26T09:33:34;48.72;13.91
69731;SHT31;56996;48.138;11.538;2023-06-26T09:36:06;48.14;14.09
69731;SHT31;56996;48.138;11.538;2023-06-26T09:38:36;46.88;14.27
69731;SHT31;56996;48.138;11.538;2023-06-26T09:41:03;45.58;14.73
69731;SHT31;56996;48.138;11.538;2023-06-26T09:43:30;45.13;14.85
69731;SHT31;56996;48.138;11.538;2023-06-26T09:45:59;44.90;14.93
69731;SHT31;56996;48.138;11.538;2023-06-26T09:48:28;44.82;15.01
69731;SHT31;56996;48.138;11.538;2023-06-26T09:50:55;44.60;14.97
69731;SHT31;56996;48.138;11.538;2023-06-26T09:53:38;43.61;15.52
69731;SHT31;56996;48.138;11.538;2023-06-26T09:56:06;43.13;15.75
69731;SHT31;56996;48.138;11.538;2023-06-26T09:58:33;42.67;15.89
69731;SHT31;56996;48.138;11.538;2023-06-26T10:01:03;42.30;16.05
69731;SHT31;56996;48.138;11.538;2023-06-26T10:03:30;42.08;16.10
69731;SHT31;56996;48.138;11.538;2023-06-26T10:05:57;41.80;16.14
69731;SHT31;56996;48.138;11.538;2023-06-26T10:08:27;41.34;16.47
69731;SHT31;56996;48.138;11.538;2023-06-26T10:10:55;41.18;16.83
69731;SHT31;56996;48.138;11.538;2023-06-26T10:13:25;40.79;16.96
69731;SHT31;56996;48.138;11.538;2023-06-26T10:15:58;40.17;17.24
69731;SHT31;56996;48.138;11.538;2023-06-26T10:18:27;39.93;17.44
69731;SHT31;56996;48.138;11.538;2023-06-26T10:20:56;39.78;17.59
69731;SHT31;56996;48.138;11.538;2023-06-26T10:23:23;39.62;17.31
69731;SHT31;56996;48.138;11.538;2023-06-26T10:25:53;38.97;17.82
69731;SHT31;56996;48.138;11.538;2023-06-26T10:28:22;38.15;18.79
69731;SHT31;56996;48.138;11.538;2023-06-26T10:30:50;37.54;19.21
69731;SHT31;56996;48.138;11.538;2023-06-26T10:33:18;37.54;19.50
69731;SHT31;56996;48.138;11.538;2023-06-26T10:35:46;37.66;19.52
69731;SHT31;56996;48.138;11.538;2023-06-26T10:38:12;37.81;19.25
69731;SHT31;56996;48.138;11.538;2023-06-26T10:40:45;37.62;19.23
69731;SHT31;56996;48.138;11.538;2023-06-26T10:43:15;37.24;19.43
69731;SHT31;56996;48.138;11.538;2023-06-26T10:45:46;37.25;19.46
69731;SHT31;56996;48.138;11.538;2023-06-26T10:48:19;37.12;19.38
69731;SHT31;56996;48.138;11.538;2023-06-26T10:50:47;36.79;19.77
69731;SHT31;56996;48.138;11.538;2023-06-26T10:56:01;36.47;20.17
69731;SHT31;56996;48.138;11.538;2023-06-26T11:03:43;36.22;20.10
69731;SHT31;56996;48.138;11.538;2023-06-26T11:06:14;36.21;20.51
69731;SHT31;56996;48.138;11.538;2023-06-26T11:08:48;36.40;20.40
69731;SHT31;56996;48.138;11.538;2023-06-26T11:11:16;36.49;20.55
69731;SHT31;56996;48.138;11.538;2023-06-26T11:13:44;36.38;20.79
69731;SHT31;56996;48.138;11.538;2023-06-26T11:16:12;36.15;20.95
69731;SHT31;56996;48.138;11.538;2023-06-26T11:18:41;35.62;21.45
69731;SHT31;56996;48.138;11.538;2023-06-26T11:21:09;35.19;21.75
69731;SHT31;56996;48.138;11.538;2023-06-26T11:23:40;35.11;21.78
69731;SHT31;56996;48.138;11.538;2023-06-26T11:26:16;35.08;21.94
69731;SHT31;56996;48.138;11.538;2023-06-26T11:28:51;34.91;21.96
69731;SHT31;56996;48.138;11.538;2023-06-26T11:31:26;35.00;21.86
69731;SHT31;56996;48.138;11.538;2023-06-26T11:34:02;35.15;21.97
69731;SHT31;56996;48.138;11.538;2023-06-26T11:36:31;35.20;22.09
69731;SHT31;56996;48.138;11.538;2023-06-26T11:39:00;34.99;22.68
69731;SHT31;56996;48.138;11.538;2023-06-26T11:41:35;34.95;22.61
69731;SHT31;56996;48.138;11.538;2023-06-26T11:44:08;35.06;22.57
69731;SHT31;56996;48.138;11.538;2023-06-26T11:46:36;35.13;22.83
69731;SHT31;56996;48.138;11.538;2023-06-26T11:49:04;35.14;22.77
69731;SHT31;56996;48.138;11.538;2023-06-26T11:51:34;34.79;22.91
69731;SHT31;56996;48.138;11.538;2023-06-26T11:54:03;34.71;23.08
69731;SHT31;56996;48.138;11.538;2023-06-26T11:56:31;34.63;23.15
69731;SHT31;56996;48.138;11.538;2023-06-26T12:04:00;35.03;21.72
69731;SHT31;56996;48.138;11.538;2023-06-26T12:06:30;35.03;21.67
69731;SHT31;56996;48.138;11.538;2023-06-26T12:09:00;34.85;22.25
69731;SHT31;56996;48.138;11.538;2023-06-26T12:11:32;34.77;22.32
69731;SHT31;56996;48.138;11.538;2023-06-26T12:14:01;34.77;22.40
69731;SHT31;56996;48.138;11.538;2023-06-26T12:16:30;34.63;22.55
69731;SHT31;56996;48.138;11.538;2023-06-26T12:19:03;34.65;22.72
69731;SHT31;56996;48.138;11.538;2023-06-26T12:24:07;34.51;23.48
69731;SHT31;56996;48.138;11.538;2023-06-26T12:26:35;34.53;23.56
69731;SHT31;56996;48.138;11.538;2023-06-26T12:29:05;34.39;23.67
69731;SHT31;56996;48.138;11.538;2023-06-26T12:31:34;34.25;23.57
69731;SHT31;56996;48.138;11.538;2023-06-26T12:34:08;34.30;23.55
69731;SHT31;56996;48.138;11.538;2023-06-26T12:36:41;34.51;23.36
69731;SHT31;56996;48.138;11.538;2023-06-26T12:39:12;34.58;23.42
69731;SHT31;56996;48.138;11.538;2023-06-26T12:41:46;34.58;23.69
69731;SHT31;56996;48.138;11.538;2023-06-26T12:44:25;34.73;23.39
69731;SHT31;56996;48.138;11.538;2023-06-26T12:46:57;34.75;23.30
69731;SHT31;56996;48.138;11.538;2023-06-26T12:49:33;34.71;23.22
69731;SHT31;56996;48.138;11.538;2023-06-26T12:52:05;34.84;23.09
69731;SHT31;56996;48.138;11.538;2023-06-26T12:54:34;34.95;22.87
69731;SHT31;56996;48.138;11.538;2023-06-26T12:57:03;34.90;22.80
69731;SHT31;56996;48.138;11.538;2023-06-26T12:59:31;34.63;22.99
69731;SHT31;56996;48.138;11.538;2023-06-26T13:01:58;34.65;22.99
69731;SHT31;56996;48.138;11.538;2023-06-26T13:04:26;34.65;23.05
69731;SHT31;56996;48.138;11.538;2023-06-26T13:06:53;34.46;23.22
69731;SHT31;56996;48.138;11.538;2023-06-26T13:09:21;34.20;23.41
69731;SHT31;56996;48.138;11.538;2023-06-26T13:11:50;34.08;23.53
69731;SHT31;56996;48.138;11.538;2023-06-26T13:14:21;33.93;23.66
69731;SHT31;56996;48.138;11.538;2023-06-26T13:16:47;33.94;23.71
69731;SHT31;56996;48.138;11.538;2023-06-26T13:19:15;34.01;23.70
69731;SHT31;56996;48.138;11.538;2023-06-26T13:21:42;34.08;23.78
69731;SHT31;56996;48.138;11.538;2023-06-26T13:24:09;34.32;23.76
69731;SHT31;56996;48.138;11.538;2023-06-26T13:26:36;34.41;23.79
69731;SHT31;56996;48.138;11.538;2023-06-26T13:29:04;34.54;23.72
69731;SHT31;56996;48.138;11.538;2023-06-26T13:31:31;34.68;23.62
69731;SHT31;56996;48.138;11.538;2023-06-26T13:33:59;34.78;23.52
69731;SHT31;56996;48.138;11.538;2023-06-26T13:36:26;34.94;23.57
69731;SHT31;56996;48.138;11.538;2023-06-26T13:38:54;35.00;23.44
69731;SHT31;56996;48.138;11.538;2023-06-26T13:41:23;35.12;23.49
69731;SHT31;56996;48.138;11.538;2023-06-26T13:43:51;35.00;23.79
69731;SHT31;56996;48.138;11.538;2023-06-26T13:46:24;34.96;24.04
69731;SHT31;56996;48.138;11.538;2023-06-26T13:48:51;34.85;24.13
69731;SHT31;56996;48.138;11.538;2023-06-26T13:51:17;34.51;24.26
69731;SHT31;56996;48.138;11.538;2023-06-26T13:53:44;34.19;24.57
69731;SHT31;56996;48.138;11.538;2023-06-26T13:56:11;33.98;24.61
69731;SHT31;56996;48.138;11.538;2023-06-26T13:58:37;33.80;24.80
69731;SHT31;56996;48.138;11.538;2023-06-26T14:01:04;33.61;25.19
69731;SHT31;56996;48.138;11.538;2023-06-26T14:03:31;33.59;25.27
69731;SHT31;56996;48.138;11.538;2023-06-26T14:05:58;33.60;25.11
69731;SHT31;56996;48.138;11.538;2023-06-26T14:08:25;33.74;25.04
69731;SHT31;56996;48.138;11.538;2023-06-26T14:10:52;33.88;24.90
69731;SHT31;56996;48.138;11.538;2023-06-26T14:13:19;34.05;24.92
69731;SHT31;56996;48.138;11.538;2023-06-26T14:15:49;34.26;24.57
69731;SHT31;56996;48.138;11.538;2023-06-26T14:18:19;34.22;24.21
69731;SHT31;56996;48.138;11.538;2023-06-26T14:20:51;34.11;24.32
69731;SHT31;56996;48.138;11.538;2023-06-26T14:23:18;33.94;24.37
69731;SHT31;56996;48.138;11.538;2023-06-26T14:25:45;33.88;24.58
69731;SHT31;56996;48.138;11.538;2023-06-26T14:28:14;33.97;24.56
69731;SHT31;56996;48.138;11.538;2023-06-26T14:30:41;34.14;24.53
69731;SHT31;56996;48.138;11.538;2023-06-26T14:33:09;34.38;24.48
69731;SHT31;56996;48.138;11.538;2023-06-26T14:35:35;34.65;24.37
69731;SHT31;56996;48.138;11.538;2023-06-26T14:38:02;34.80;24.04
69731;SHT31;56996;48.138;11.538;2023-06-26T14:40:29;34.97;24.14
69731;SHT31;56996;48.138;11.538;2023-06-26T14:42:56;35.03;24.04
69731;SHT31;56996;48.138;11.538;2023-06-26T14:45:23;34.98;23.93
69731;SHT31;56996;48.138;11.538;2023-06-26T14:47:51;34.89;23.80
69731;SHT31;56996;48.138;11.538;2023-06-26T14:50:18;34.75;23.89
69731;SHT31;56996;48.138;11.538;2023-06-26T14:52:45;34.73;23.98
69731;SHT31;56996;48.138;11.538;2023-06-26T14:55:12;34.67;24.16
69731;SHT31;56996;48.138;11.538;2023-06-26T14:57:38;34.41;24.34
69731;SHT31;56996;48.138;11.538;2023-06-26T15:00:05;34.30;24.49
69731;SHT31;56996;48.138;11.538;2023-06-26T15:02:33;34.20;24.36
69731;SHT31;56996;48.138;11.538;2023-06-26T15:05:00;34.17;24.38
69731;SHT31;56996;48.138;11.538;2023-06-26T15:07:27;34.24;24.32
69731;SHT31;56996;48.138;11.538;2023-06-26T15:09:54;34.38;24.21
69731;SHT31;56996;48.138;11.538;2023-06-26T15:12:21;34.42;24.32
69731;SHT31;56996;48.138;11.538;2023-06-26T15:14:50;34.33;24.00
69731;SHT31;56996;48.138;11.538;2023-06-26T15:17:18;34.21;24.06
69731;SHT31;56996;48.138;11.538;2023-06-26T15:19:45;34.04;24.24
69731;SHT31;56996;48.138;11.538;2023-06-26T15:22:11;33.85;24.64
69731;SHT31;56996;48.138;11.538;2023-06-26T15:24:38;33.84;24.78
69731;SHT31;56996;48.138;11.538;2023-06-26T15:27:05;33.82;24.65
69731;SHT31;56996;48.138;11.538;2023-06-26T15:29:33;33.72;24.61
69731;SHT31;56996;48.138;11.538;2023-06-26T15:32:00;33.56;24.83
69731;SHT31;56996;48.138;11.538;2023-06-26T15:34:28;33.46;24.75
69731;SHT31;56996;48.138;11.538;2023-06-26T15:36:54;33.33;24.79
69731;SHT31;56996;48.138;11.538;2023-06-26T15:39:21;33.24;24.91
69731;SHT31;56996;48.138;11.538;2023-06-26T15:41:48;33.15;25.02
69731;SHT31;56996;48.138;11.538;2023-06-26T15:44:14;33.00;25.47
69731;SHT31;56996;48.138;11.538;2023-06-26T15:46:41;32.79;28.21
69731;SHT31;56996;48.138;11.538;2023-06-26T15:49:08;32.53;30.55